Météo Cheval Rigon

 

Relevés d'aujourd'hui



 

21/9/17
Time         Wind Dir   Wind Spd  Wind Gust   Humidity       Temp   Tot Rain Wind Chill  Dew Point   Barom SL Humidity R Temp Out R Tot Rain R   WindCh R   Dew Pt R SL Barom R Temp Out H Temp Out L  DailyRain   HourRain   24HrRain   RainRate  MonthRain
                          km/hr      km/hr          %         C         mm         C         C         mb       %/hr      C/hr      mm/hr      C/hr      C/hr      mm/hr         C         C         mm         mm         mm      mm/hr         mm
0:00              110          2          5         89        8.4     672.20        8.4        6.7    1020.90        3.4      -0.39      0.000      -0.26       0.20     -0.328        8.4        8.4       0.20       0.00       0.20      0.000      48.40
0:15              109          0          5         89        8.2     672.20        8.2        6.5    1020.90        2.7      -0.54      0.000      -0.45      -0.08     -0.255        8.4        8.2       0.00       0.00       0.20      0.000      48.40
0:30              109          2          3         90        7.9     672.20        7.9        6.4    1020.84        2.9      -0.67      0.000      -0.59      -0.17     -0.257        8.4        7.9       0.00       0.00       0.20      0.000      48.40
0:45              107          0          3         91        7.8     672.20        7.8        6.4    1020.56        3.1      -0.61      0.000      -0.55      -0.08     -0.441        8.4        7.8       0.00       0.00       0.20      0.000      48.40
1:00              106          0          5         92        7.8     672.20        7.8        6.6    1020.56        3.3      -0.42      0.000      -0.38       0.12     -0.351        8.4        7.8       0.00       0.00       0.20      0.000      48.40
1:15              105          2          5         92        8.1     672.20        8.1        6.8    1020.60        2.6      -0.13      0.000      -0.09       0.29     -0.241        8.4        7.8       0.00       0.00       0.20      0.000      48.40
1:30              103          3          6         92        8.2     672.20        8.2        6.9    1020.56        2.0      -0.00      0.000       0.04       0.32     -0.216        8.4        7.8       0.00       0.00       0.20      0.000      48.40
1:45              109          3          6         92        8.3     672.20        8.3        7.1    1020.63        1.6       0.14      0.000       0.19       0.40     -0.106        8.4        7.8       0.00       0.00       0.20      0.000      48.40
2:00              107          3          5         92        8.3     672.20        8.3        7.1    1020.56        1.2       0.12      0.000       0.16       0.32     -0.146        8.4        7.8       0.00       0.00       0.20      0.000      48.40
2:15              101          3          8         92        8.3     672.20        8.3        7.1    1020.46        0.9       0.05      0.000       0.11       0.20     -0.206        8.4        7.8       0.00       0.00       0.20      0.000      48.40
2:30              102          3          8         92        8.6     672.20        8.6        7.3    1020.43        0.7       0.27      0.000       0.34       0.38     -0.190        8.6        7.8       0.00       0.00       0.20      0.000      48.40
2:45              105          3          8         92        8.7     672.20        8.7        7.5    1020.29        0.5       0.36      0.000       0.45       0.44     -0.268        8.7        7.8       0.00       0.00       0.20      0.000      48.40
3:00              101          3         10         91        8.8     672.20        8.8        7.4    1020.09       -0.4       0.37      0.000       0.49       0.31     -0.397        8.8        7.8       0.00       0.00       0.20      0.000      48.40
3:15              102          5          8         91        8.8     672.20        8.5        7.4    1020.02       -0.3       0.29      0.000       0.09       0.24     -0.375        8.8        7.8       0.00       0.00       0.20      0.000      48.40
3:30              101          5         10         91        8.9     672.20        8.6        7.6    1019.92       -0.2       0.32      0.000       0.19       0.28     -0.388        9.0        7.8       0.00       0.00       0.20      0.000      48.40
3:45              104          2          8         90        9.1     672.20        9.1        7.5    1019.89       -1.0       0.35      0.000       0.54       0.19     -0.330        9.1        7.8       0.00       0.00       0.20      0.000      48.40
4:00              104          3          5         90        9.0     672.20        9.0        7.4    1019.85       -0.8       0.22      0.000       0.38       0.10     -0.287        9.1        7.8       0.00       0.00       0.20      0.000      48.40
4:15              127          2          6         89        8.9     672.20        8.9        7.2    1019.79       -1.4       0.12      0.000       0.25      -0.11     -0.278        9.1        7.8       0.00       0.00       0.20      0.000      48.40
4:30              110          2          6         89        8.8     672.20        8.8        7.1    1019.68       -1.1      -0.00      0.000       0.12      -0.18     -0.312        9.1        7.8       0.00       0.00       0.20      0.000      48.40
4:45              106          0          5         89        8.8     672.20        8.8        7.1    1019.65       -0.8      -0.06      0.000       0.04      -0.19     -0.268        9.1        7.8       0.00       0.00       0.20      0.000      48.40
5:00              106          0          5         88        8.7     672.20        8.7        6.8    1019.55       -1.5      -0.15      0.000      -0.07      -0.39     -0.298        9.1        7.8       0.00       0.00       0.20      0.000      48.40

 


 

 

 

Retour accueil